Time;durP1;ratioP1;P1;durP2;ratioP2;P2;SDS_P1;SDS_P2;PMS_P1;PMS_P2;Temp;Humidity;BMP_temperature;BMP_pressure;BME280_temperature;BME280_humidity;BME280_pressure;Samples;Min_cycle;Max_cycle;Signal;HPM_P1;HPM_P2
2021/03/15 00:01:13;;;;;;;2.00;1.80;;;;;;;;;;4852655;29;20224;-79
2021/03/15 00:03:42;;;;;;;2.67;1.80;;;;;;;;;;4885400;29;20220;-78
2021/03/15 00:25:06;;;;;;;1.10;0.97;;;;;;;;;;5664249;23;20232;-78
2021/03/15 00:27:35;;;;;;;1.57;1.00;;;;;;;;;;4901106;29;20612;-79
2021/03/15 00:30:06;;;;;;;1.03;0.93;;;;;;;;;;4903527;29;20215;-79
2021/03/15 00:32:34;;;;;;;1.10;1.00;;;;;;;;;;4903122;29;20685;-80
2021/03/15 00:35:03;;;;;;;1.13;0.90;;;;;;;;;;4903771;29;20205;-79
2021/03/15 00:37:31;;;;;;;0.90;0.90;;;;;;;;;;4887136;29;20713;-79
2021/03/15 00:40:00;;;;;;;0.80;0.80;;;;;;;;;;4902317;29;20211;-79
2021/03/15 01:02:17;;;;;;;1.13;0.97;;;;;;;;;;4862252;29;20605;-81
2021/03/15 01:04:46;;;;;;;0.90;0.90;;;;;;;;;;4833563;29;20210;-80
2021/03/15 01:07:23;;;;;;;1.10;1.00;;;;;;;;;;4830672;29;20594;-79
2021/03/15 01:09:52;;;;;;;0.90;0.90;;;;;;;;;;4815704;29;20206;-80
2021/03/15 01:12:37;;;;;;;1.10;1.00;;;;;;;;;;4830906;29;20211;-79
2021/03/15 01:18:17;;;;;;;1.30;1.20;;;;;;;;;;5296368;23;20249;-79
2021/03/15 01:20:48;;;;;;;2.13;1.23;;;;;;;;;;4882823;29;20215;-79
2021/03/15 01:23:17;;;;;;;1.20;1.10;;;;;;;;;;4868075;29;20303;-79
2021/03/15 01:25:46;;;;;;;1.73;1.40;;;;;;;;;;4874362;29;20232;-79
2021/03/15 01:28:16;;;;;;;1.60;1.20;;;;;;;;;;4890869;29;20218;-83
2021/03/15 01:56:48;;;;;;;2.40;2.10;;;;;;;;;;5405337;23;20241;-79
2021/03/15 01:59:18;;;;;;;2.73;2.00;;;;;;;;;;4851752;29;20221;-79
2021/03/15 02:01:47;;;;;;;2.23;1.90;;;;;;;;;;4883988;29;20206;-79
2021/03/15 02:04:17;;;;;;;2.93;2.63;;;;;;;;;;4850807;29;20217;-80
2021/03/15 02:06:45;;;;;;;3.23;2.40;;;;;;;;;;4882843;29;20229;-80
2021/03/15 02:09:21;;;;;;;3.27;2.43;;;;;;;;;;4866092;29;20243;-80
2021/03/15 02:12:09;;;;;;;4.83;2.40;;;;;;;;;;4865910;29;20201;-80
2021/03/15 02:14:49;;;;;;;3.43;2.53;;;;;;;;;;4850384;29;20694;-80
2021/03/15 02:17:31;;;;;;;6.40;3.13;;;;;;;;;;4865413;29;20721;-79
2021/03/15 02:20:41;;;;;;;4.17;2.60;;;;;;;;;;4881386;29;20217;-79
2021/03/15 02:23:13;;;;;;;4.40;2.60;;;;;;;;;;4879382;29;20190;-80
2021/03/15 02:26:17;;;;;;;4.80;2.60;;;;;;;;;;4862251;29;20217;-79
2021/03/15 02:29:30;;;;;;;5.20;3.07;;;;;;;;;;4884861;29;20237;-79
2021/03/15 02:32:23;;;;;;;5.00;3.27;;;;;;;;;;4867704;29;20213;-79
2021/03/15 02:35:27;;;;;;;4.27;2.80;;;;;;;;;;4866187;29;20240;-80
2021/03/15 02:38:03;;;;;;;5.67;3.20;;;;;;;;;;4805475;29;20246;-78
2021/03/15 02:40:34;;;;;;;3.60;2.53;;;;;;;;;;4809435;29;20212;-80
2021/03/15 02:43:05;;;;;;;4.37;2.87;;;;;;;;;;4794580;29;20216;-80
2021/03/15 02:55:18;;;;;;;5.13;2.93;;;;;;;;;;5873397;23;21570;31
2021/03/15 02:57:56;;;;;;;4.67;3.13;;;;;;;;;;4811874;29;20244;-80
2021/03/15 03:00:27;;;;;;;7.50;3.10;;;;;;;;;;4810162;29;20227;-79
2021/03/15 03:02:56;;;;;;;5.90;3.30;;;;;;;;;;4809301;29;20697;-80
2021/03/15 03:05:25;;;;;;;4.07;2.60;;;;;;;;;;4825076;29;20243;-79
2021/03/15 03:08:14;;;;;;;5.07;3.07;;;;;;;;;;4808496;29;20246;-79
2021/03/15 03:10:43;;;;;;;4.73;3.03;;;;;;;;;;4810225;29;20211;-79
2021/03/15 03:13:14;;;;;;;4.00;3.10;;;;;;;;;;4807601;29;20212;-80
2021/03/15 03:15:42;;;;;;;4.00;2.90;;;;;;;;;;4792828;29;20236;-79
2021/03/15 03:18:14;;;;;;;6.10;3.40;;;;;;;;;;4823453;29;20214;-79
2021/03/15 03:21:03;;;;;;;5.00;3.47;;;;;;;;;;4823539;29;20654;-79
2021/03/15 03:23:33;;;;;;;4.63;3.00;;;;;;;;;;4809801;29;20675;-79
2021/03/15 03:26:04;;;;;;;3.20;2.70;;;;;;;;;;4792845;29;20235;-79
2021/03/15 03:28:34;;;;;;;3.70;2.40;;;;;;;;;;4807999;29;20228;-80
2021/03/15 03:31:06;;;;;;;6.47;2.47;;;;;;;;;;4810795;29;20204;-80
2021/03/15 03:33:36;;;;;;;4.30;2.70;;;;;;;;;;4793650;29;20204;-81
2021/03/15 03:36:05;;;;;;;2.50;2.30;;;;;;;;;;4795416;29;20235;-80
2021/03/15 03:38:42;;;;;;;3.10;2.33;;;;;;;;;;4801224;29;20219;-81
2021/03/15 03:41:12;;;;;;;3.43;2.50;;;;;;;;;;4821397;29;20235;-80
2021/03/15 03:43:48;;;;;;;3.87;2.57;;;;;;;;;;4828903;29;20230;-80
2021/03/15 03:46:21;;;;;;;3.50;2.60;;;;;;;;;;4801392;29;20328;-81
2021/03/15 03:52:05;;;;;;;3.07;2.40;;;;;;;;;;4812022;29;20237;-81
2021/03/15 03:54:39;;;;;;;2.43;2.23;;;;;;;;;;4826380;29;20666;-80
2021/03/15 03:57:12;;;;;;;3.67;2.50;;;;;;;;;;4826157;29;20255;-82
2021/03/15 03:59:46;;;;;;;3.33;2.40;;;;;;;;;;4835434;29;20231;-79
2021/03/15 04:02:19;;;;;;;4.93;2.40;;;;;;;;;;4849656;29;20234;-79
2021/03/15 04:04:55;;;;;;;2.50;2.10;;;;;;;;;;4846153;29;20236;-80
2021/03/15 04:07:26;;;;;;;3.50;2.53;;;;;;;;;;4813037;29;20247;-83
2021/03/15 04:10:04;;;;;;;3.63;2.87;;;;;;;;;;4806168;29;20226;-81
2021/03/15 04:12:34;;;;;;;2.90;2.47;;;;;;;;;;4830106;29;20237;-79
2021/03/15 04:15:05;;;;;;;4.40;2.40;;;;;;;;;;4842158;29;20237;-78
2021/03/15 04:17:38;;;;;;;3.53;2.37;;;;;;;;;;4855089;29;20220;-78
2021/03/15 04:20:09;;;;;;;6.37;3.17;;;;;;;;;;4834103;29;20246;-80
2021/03/15 04:22:46;;;;;;;4.77;2.50;;;;;;;;;;4846014;29;20223;-79
2021/03/15 04:25:16;;;;;;;5.80;2.57;;;;;;;;;;4858293;29;20241;-80
2021/03/15 04:28:12;;;;;;;4.23;2.70;;;;;;;;;;4818677;29;20232;-81
2021/03/15 04:31:11;;;;;;;2.80;2.53;;;;;;;;;;4824817;29;20245;-81
2021/03/15 04:33:58;;;;;;;4.53;2.60;;;;;;;;;;4812674;29;20228;-79
2021/03/15 04:37:01;;;;;;;4.90;3.07;;;;;;;;;;4806619;29;20241;-80
2021/03/15 04:39:47;;;;;;;3.23;2.60;;;;;;;;;;4826170;29;20239;-79
2021/03/15 04:42:21;;;;;;;4.27;2.90;;;;;;;;;;4830164;29;20250;-79
2021/03/15 04:45:01;;;;;;;3.80;2.70;;;;;;;;;;4803518;29;20239;-79
2021/03/15 04:47:45;;;;;;;6.00;3.30;;;;;;;;;;4767859;29;20247;-83
2021/03/15 04:50:23;;;;;;;6.13;3.13;;;;;;;;;;4806559;29;20247;-81
2021/03/15 04:53:57;;;;;;;3.50;3.00;;;;;;;;;;4811324;29;20243;-79
2021/03/15 04:56:37;;;;;;;3.87;2.90;;;;;;;;;;4834132;29;20231;-81
2021/03/15 04:59:50;;;;;;;5.37;3.37;;;;;;;;;;4836821;29;20231;-81
2021/03/15 05:04:36;;;;;;;3.43;3.13;;;;;;;;;;4806833;29;20435;-80
2021/03/15 05:07:17;;;;;;;5.43;3.30;;;;;;;;;;4791649;29;20235;-78
2021/03/15 05:10:36;;;;;;;4.57;3.30;;;;;;;;;;4774834;29;21185;-80
2021/03/15 05:13:38;;;;;;;6.17;3.53;;;;;;;;;;4776654;29;20249;-77
2021/03/15 05:16:10;;;;;;;5.53;2.90;;;;;;;;;;4806808;29;20245;-80
2021/03/15 05:18:52;;;;;;;4.63;3.00;;;;;;;;;;4812858;29;20233;-81
2021/03/15 05:21:29;;;;;;;3.53;3.23;;;;;;;;;;4801885;29;20244;-79
2021/03/15 05:24:13;;;;;;;4.57;2.80;;;;;;;;;;4811105;29;20228;-81
2021/03/15 05:26:43;;;;;;;3.87;3.07;;;;;;;;;;4786832;29;20247;-79
2021/03/15 05:29:16;;;;;;;3.30;2.83;;;;;;;;;;4778211;29;20241;-81
2021/03/15 05:31:45;;;;;;;2.87;2.60;;;;;;;;;;4790948;29;20387;-81
2021/03/15 05:34:14;;;;;;;4.33;2.80;;;;;;;;;;4770368;29;20251;-81
2021/03/15 05:36:44;;;;;;;3.53;2.83;;;;;;;;;;4779827;29;20387;-79
2021/03/15 05:39:13;;;;;;;4.30;2.30;;;;;;;;;;4777788;29;20242;-79
2021/03/15 05:41:57;;;;;;;4.43;2.77;;;;;;;;;;4811414;29;20235;-81
2021/03/15 05:44:40;;;;;;;2.63;2.40;;;;;;;;;;4773236;29;20234;-80
2021/03/15 05:47:31;;;;;;;3.27;2.57;;;;;;;;;;4790531;29;20231;-81
2021/03/15 05:50:28;;;;;;;4.53;2.73;;;;;;;;;;4805211;29;20236;-80
2021/03/15 05:53:30;;;;;;;4.47;2.83;;;;;;;;;;4796706;29;20228;-79
2021/03/15 05:56:15;;;;;;;3.17;2.10;;;;;;;;;;4803972;29;20249;-81
2021/03/15 05:59:17;;;;;;;2.10;1.77;;;;;;;;;;4809285;29;20243;-81
2021/03/15 06:02:12;;;;;;;1.90;1.80;;;;;;;;;;4742979;29;20239;-80
2021/03/15 06:04:47;;;;;;;2.30;2.10;;;;;;;;;;4815306;29;20827;-80
2021/03/15 06:07:20;;;;;;;2.30;1.93;;;;;;;;;;4802995;29;20240;-79
2021/03/15 06:10:20;;;;;;;2.30;1.67;;;;;;;;;;4804828;29;20240;-80
2021/03/15 06:12:56;;;;;;;2.07;1.87;;;;;;;;;;4769489;29;20228;-82
2021/03/15 06:15:34;;;;;;;1.73;1.63;;;;;;;;;;4827205;29;20243;-82
2021/03/15 06:18:05;;;;;;;2.13;1.93;;;;;;;;;;4814225;29;20237;-80
2021/03/15 06:20:35;;;;;;;1.70;1.60;;;;;;;;;;4827127;29;20246;-79
2021/03/15 06:23:08;;;;;;;2.40;2.20;;;;;;;;;;4832271;29;20257;-79
2021/03/15 06:25:49;;;;;;;2.30;1.90;;;;;;;;;;4827700;29;20246;-81
2021/03/15 06:28:19;;;;;;;1.80;1.70;;;;;;;;;;4821182;29;20246;-80
2021/03/15 06:30:50;;;;;;;4.30;2.10;;;;;;;;;;4824308;29;20242;-82
2021/03/15 06:33:19;;;;;;;2.27;1.90;;;;;;;;;;4830075;29;20227;-81
2021/03/15 06:35:55;;;;;;;2.17;1.70;;;;;;;;;;4805119;29;20259;-80
2021/03/15 06:38:25;;;;;;;1.70;1.60;;;;;;;;;;4810084;29;20234;-78
2021/03/15 06:41:02;;;;;;;2.03;1.83;;;;;;;;;;4831705;29;20241;-81
2021/03/15 06:43:30;;;;;;;1.73;1.60;;;;;;;;;;4792014;29;20769;-81
2021/03/15 06:46:04;;;;;;;1.60;1.50;;;;;;;;;;4824590;29;20243;-81
2021/03/15 06:48:37;;;;;;;4.00;2.17;;;;;;;;;;4827681;29;20241;-78
2021/03/15 06:51:07;;;;;;;2.57;1.73;;;;;;;;;;4838550;29;20238;-81
2021/03/15 06:53:43;;;;;;;1.80;1.70;;;;;;;;;;4850328;29;20709;-80
2021/03/15 06:56:21;;;;;;;1.60;1.50;;;;;;;;;;4832384;29;20242;-79
2021/03/15 06:59:02;;;;;;;2.70;1.57;;;;;;;;;;4801653;29;20235;-80
2021/03/15 07:02:09;;;;;;;2.77;1.70;;;;;;;;;;4803078;29;20231;-80
2021/03/15 07:45:09;;;;;;;5.27;2.70;;;;;;;;;;4777835;30;20249;-80
2021/03/15 07:47:51;;;;;;;1.93;1.43;;;;;;;;;;4764152;30;20255;-81
2021/03/15 07:51:09;;;;;;;1.57;0.80;;;;;;;;;;4734035;30;20241;-80
2021/03/15 07:53:45;;;;;;;1.20;0.90;;;;;;;;;;4771102;29;20279;-80
2021/03/15 07:56:31;;;;;;;2.50;1.27;;;;;;;;;;4791170;29;20243;-81
2021/03/15 07:59:07;;;;;;;1.13;0.90;;;;;;;;;;4806417;29;20470;-80
2021/03/15 08:05:08;;;;;;;2.13;0.90;;;;;;;;;;4816115;29;20241;-80
2021/03/15 08:07:40;;;;;;;0.90;0.60;;;;;;;;;;4825571;29;20380;-79
2021/03/15 08:10:10;;;;;;;0.80;0.80;;;;;;;;;;4802934;29;20235;-80
2021/03/15 08:12:39;;;;;;;1.47;0.77;;;;;;;;;;4838744;29;20239;-80
2021/03/15 08:15:08;;;;;;;0.77;0.77;;;;;;;;;;4823516;29;20245;-81
2021/03/15 08:17:38;;;;;;;1.43;0.60;;;;;;;;;;4804912;29;20284;-81
2021/03/15 08:20:09;;;;;;;1.00;0.70;;;;;;;;;;4815245;29;20235;-82
2021/03/15 08:23:06;;;;;;;0.87;0.70;;;;;;;;;;4792661;29;20394;-80
2021/03/15 08:25:37;;;;;;;0.70;0.70;;;;;;;;;;4801023;29;20699;-81
2021/03/15 08:28:06;;;;;;;1.53;0.73;;;;;;;;;;4816749;29;20236;-81
2021/03/15 08:34:23;;;;;;;0.57;0.57;;;;;;;;;;4816439;29;20239;-80
2021/03/15 08:36:52;;;;;;;1.13;0.73;;;;;;;;;;4823809;29;20236;-80
2021/03/15 08:39:40;;;;;;;1.47;0.60;;;;;;;;;;4840532;29;20234;-80
2021/03/15 08:42:23;;;;;;;0.67;0.63;;;;;;;;;;4813692;29;20235;-81
2021/03/15 08:45:27;;;;;;;1.97;0.70;;;;;;;;;;4826995;29;20233;-81
2021/03/15 08:48:00;;;;;;;0.80;0.57;;;;;;;;;;4831604;29;20235;-81
2021/03/15 08:50:57;;;;;;;0.60;0.60;;;;;;;;;;4826111;29;20239;-80
2021/03/15 08:53:49;;;;;;;0.50;0.50;;;;;;;;;;4827229;29;20226;-80
2021/03/15 08:56:39;;;;;;;0.57;0.50;;;;;;;;;;4836868;29;20238;-81
2021/03/15 08:59:08;;;;;;;0.40;0.40;;;;;;;;;;4819064;29;20236;-80
2021/03/15 09:01:58;;;;;;;2.57;0.50;;;;;;;;;;4814572;29;20245;-80
2021/03/15 09:04:45;;;;;;;0.57;0.50;;;;;;;;;;4815657;29;20594;-79
2021/03/15 09:07:30;;;;;;;0.60;0.57;;;;;;;;;;4807636;29;20631;-82
2021/03/15 09:10:38;;;;;;;0.87;0.40;;;;;;;;;;4829887;29;20249;-81
2021/03/15 09:13:20;;;;;;;1.03;0.50;;;;;;;;;;4775002;29;20233;-81
2021/03/15 09:15:57;;;;;;;1.43;0.50;;;;;;;;;;4804502;29;20243;-80
2021/03/15 09:18:44;;;;;;;2.20;1.70;;;;;;;;;;4787421;29;20500;-80
2021/03/15 09:21:49;;;;;;;1.50;1.23;;;;;;;;;;4814562;29;20248;-80
2021/03/15 09:24:47;;;;;;;0.43;0.40;;;;;;;;;;4801107;29;20588;-81
2021/03/15 09:27:35;;;;;;;0.50;0.50;;;;;;;;;;4808870;29;20248;-81
2021/03/15 09:30:07;;;;;;;0.90;0.60;;;;;;;;;;4789699;29;20250;-81
2021/03/15 09:32:36;;;;;;;0.40;0.40;;;;;;;;;;4801979;29;20647;-81
2021/03/15 09:35:24;;;;;;;0.67;0.60;;;;;;;;;;4791268;29;20742;-81
2021/03/15 09:37:54;;;;;;;0.40;0.40;;;;;;;;;;4819996;29;20236;-80
2021/03/15 09:40:24;;;;;;;0.83;0.40;;;;;;;;;;4805305;29;20227;-79
2021/03/15 09:42:55;;;;;;;0.77;0.50;;;;;;;;;;4798651;29;20235;-82
2021/03/15 09:45:28;;;;;;;0.40;0.40;;;;;;;;;;4821785;29;20246;-81
2021/03/15 09:47:57;;;;;;;1.40;0.50;;;;;;;;;;4821821;29;20238;-82
2021/03/15 09:50:28;;;;;;;0.50;0.50;;;;;;;;;;4819791;29;20232;-80
2021/03/15 09:53:09;;;;;;;0.40;0.40;;;;;;;;;;4804415;29;20242;-81
2021/03/15 09:55:39;;;;;;;0.40;0.40;;;;;;;;;;4822150;29;20239;-81
2021/03/15 09:58:10;;;;;;;0.40;0.40;;;;;;;;;;4822492;29;20240;-80
2021/03/15 10:00:44;;;;;;;0.40;0.40;;;;;;;;;;4817727;29;20228;-81
2021/03/15 10:03:35;;;;;;;0.40;0.40;;;;;;;;;;4836856;29;21011;-81
2021/03/15 10:06:38;;;;;;;0.47;0.47;;;;;;;;;;4791147;29;20236;-82
2021/03/15 10:09:25;;;;;;;0.40;0.40;;;;;;;;;;4844312;29;20329;-81
2021/03/15 10:11:56;;;;;;;0.40;0.40;;;;;;;;;;4833386;29;20232;-81
2021/03/15 10:14:34;;;;;;;0.50;0.50;;;;;;;;;;4821657;29;20247;-82
2021/03/15 10:17:40;;;;;;;0.40;0.40;;;;;;;;;;4803340;29;20234;-80
2021/03/15 10:20:38;;;;;;;3.43;0.80;;;;;;;;;;4830130;29;20239;-80
2021/03/15 10:23:12;;;;;;;0.80;0.50;;;;;;;;;;4805545;29;20719;-80
2021/03/15 10:25:54;;;;;;;0.50;0.50;;;;;;;;;;4818483;29;20236;-78
2021/03/15 10:28:26;;;;;;;0.43;0.43;;;;;;;;;;4820050;29;20219;-80
2021/03/15 10:31:14;;;;;;;0.50;0.50;;;;;;;;;;4821706;29;20247;-83
2021/03/15 10:33:45;;;;;;;0.60;0.50;;;;;;;;;;4837234;29;20228;-81
2021/03/15 10:36:16;;;;;;;0.50;0.50;;;;;;;;;;4834749;29;20745;-79
2021/03/15 10:38:44;;;;;;;0.40;0.40;;;;;;;;;;4822812;29;20235;-79
2021/03/15 10:41:13;;;;;;;0.93;0.60;;;;;;;;;;4816290;29;20243;-80
2021/03/15 10:43:44;;;;;;;0.73;0.60;;;;;;;;;;4794601;29;20236;-80
2021/03/15 10:46:24;;;;;;;0.50;0.50;;;;;;;;;;4787564;29;20251;-79
2021/03/15 10:48:56;;;;;;;0.50;0.50;;;;;;;;;;4813412;29;20239;-80
2021/03/15 10:51:25;;;;;;;0.60;0.60;;;;;;;;;;4803511;29;20244;-80
2021/03/15 10:54:31;;;;;;;0.50;0.50;;;;;;;;;;4800128;29;20592;-80
2021/03/15 10:57:17;;;;;;;0.53;0.53;;;;;;;;;;4833678;29;20256;-80
2021/03/15 10:59:49;;;;;;;0.63;0.53;;;;;;;;;;4830044;29;20429;-80
2021/03/15 11:02:23;;;;;;;1.33;0.50;;;;;;;;;;4833238;29;20259;-80
2021/03/15 11:04:58;;;;;;;1.73;0.70;;;;;;;;;;4829031;29;20243;-80
2021/03/15 11:07:37;;;;;;;1.97;0.60;;;;;;;;;;4825996;29;20247;-80
2021/03/15 11:10:09;;;;;;;0.50;0.50;;;;;;;;;;4788917;29;20232;-80
2021/03/15 11:12:44;;;;;;;0.50;0.50;;;;;;;;;;4830604;29;20242;-80
2021/03/15 11:15:16;;;;;;;1.37;0.70;;;;;;;;;;4847164;29;20235;-80
2021/03/15 11:18:11;;;;;;;1.00;0.90;;;;;;;;;;4818809;29;20254;-80
2021/03/15 11:20:47;;;;;;;0.80;0.77;;;;;;;;;;4810475;29;20230;-80
2021/03/15 11:23:29;;;;;;;0.67;0.63;;;;;;;;;;4833208;29;20235;-79
2021/03/15 11:26:00;;;;;;;0.50;0.50;;;;;;;;;;4813913;29;20234;-79
2021/03/15 11:28:30;;;;;;;0.60;0.60;;;;;;;;;;4806344;29;20232;-79
2021/03/15 11:31:01;;;;;;;1.27;0.60;;;;;;;;;;4802465;29;20232;-79
2021/03/15 11:33:35;;;;;;;0.60;0.60;;;;;;;;;;4787772;29;20239;-79
2021/03/15 11:36:21;;;;;;;0.83;0.60;;;;;;;;;;4797082;29;20243;-79
2021/03/15 11:39:03;;;;;;;0.60;0.60;;;;;;;;;;4813430;29;20224;-79
2021/03/15 11:41:44;;;;;;;1.07;0.80;;;;;;;;;;4828086;29;20230;-82
2021/03/15 11:44:13;;;;;;;1.17;0.63;;;;;;;;;;4849930;29;20243;-84
2021/03/15 11:46:41;;;;;;;1.07;0.90;;;;;;;;;;4836452;29;20231;-80
2021/03/15 11:49:15;;;;;;;0.80;0.80;;;;;;;;;;4838264;29;20235;-80
2021/03/15 11:51:53;;;;;;;0.70;0.60;;;;;;;;;;4836157;29;20246;-82
2021/03/15 11:54:30;;;;;;;1.07;0.53;;;;;;;;;;4837985;29;20235;-82
2021/03/15 11:56:58;;;;;;;0.90;0.77;;;;;;;;;;4829680;29;20223;-81
2021/03/15 11:59:29;;;;;;;0.80;0.60;;;;;;;;;;4834089;29;20243;-83
2021/03/15 12:02:07;;;;;;;0.60;0.60;;;;;;;;;;4833503;29;20257;-80
2021/03/15 12:04:36;;;;;;;0.50;0.50;;;;;;;;;;4819775;29;20246;-81
2021/03/15 12:07:06;;;;;;;0.80;0.80;;;;;;;;;;4822224;29;20809;-81
2021/03/15 12:09:39;;;;;;;0.60;0.60;;;;;;;;;;4805714;29;20216;-80
2021/03/15 12:12:08;;;;;;;0.60;0.60;;;;;;;;;;4825283;29;20238;-81
2021/03/15 12:14:52;;;;;;;0.60;0.60;;;;;;;;;;4828596;29;20212;-82
2021/03/15 12:17:20;;;;;;;0.60;0.60;;;;;;;;;;4835899;29;20234;-81
2021/03/15 12:19:50;;;;;;;0.87;0.50;;;;;;;;;;4830885;29;20239;-82
2021/03/15 12:22:39;;;;;;;0.40;0.40;;;;;;;;;;4823777;29;20235;-79
2021/03/15 12:25:09;;;;;;;1.03;0.63;;;;;;;;;;4816696;29;20231;-80
2021/03/15 12:27:44;;;;;;;0.80;0.60;;;;;;;;;;4822319;29;20223;-79
2021/03/15 12:30:15;;;;;;;0.70;0.60;;;;;;;;;;4820381;29;20720;-79
2021/03/15 12:32:44;;;;;;;0.60;0.60;;;;;;;;;;4822872;29;20236;-79
2021/03/15 12:35:14;;;;;;;0.50;0.50;;;;;;;;;;4804893;29;20251;-80
2021/03/15 12:37:42;;;;;;;0.60;0.60;;;;;;;;;;4805019;29;20311;-80
2021/03/15 12:40:11;;;;;;;0.60;0.60;;;;;;;;;;4804087;29;20244;-80
2021/03/15 12:42:40;;;;;;;0.60;0.50;;;;;;;;;;4824567;29;20239;-79
2021/03/15 12:45:17;;;;;;;0.60;0.60;;;;;;;;;;4805685;29;20620;-80
2021/03/15 12:47:53;;;;;;;0.60;0.60;;;;;;;;;;4794853;29;20239;-81
2021/03/15 12:50:23;;;;;;;0.60;0.60;;;;;;;;;;4806425;29;20244;-79
2021/03/15 12:52:51;;;;;;;0.80;0.70;;;;;;;;;;4805859;29;20743;-79
2021/03/15 12:55:36;;;;;;;0.57;0.57;;;;;;;;;;4833374;29;20232;-81
2021/03/15 12:58:04;;;;;;;0.60;0.60;;;;;;;;;;4829740;29;20236;-80
2021/03/15 13:00:32;;;;;;;0.73;0.67;;;;;;;;;;4803659;29;20237;-80
2021/03/15 13:03:20;;;;;;;0.50;0.50;;;;;;;;;;4829272;29;20236;-79
2021/03/15 13:05:49;;;;;;;0.63;0.63;;;;;;;;;;4808005;29;20274;-80
2021/03/15 13:08:36;;;;;;;0.87;0.80;;;;;;;;;;4817383;29;20247;-80
2021/03/15 13:11:40;;;;;;;0.70;0.70;;;;;;;;;;4818675;29;20243;-80
2021/03/15 13:14:26;;;;;;;0.70;0.70;;;;;;;;;;4849031;29;20243;-80
2021/03/15 13:17:01;;;;;;;0.90;0.87;;;;;;;;;;4832328;29;20247;-80
2021/03/15 13:19:29;;;;;;;1.27;0.90;;;;;;;;;;4832582;29;20693;-80
2021/03/15 13:22:01;;;;;;;1.30;0.93;;;;;;;;;;4798998;29;20243;-80
2021/03/15 13:24:33;;;;;;;0.80;0.80;;;;;;;;;;4802594;29;20228;-80
2021/03/15 13:27:01;;;;;;;0.93;0.90;;;;;;;;;;4817677;29;20638;-80
2021/03/15 13:29:35;;;;;;;0.90;0.90;;;;;;;;;;4826665;29;20246;-81
2021/03/15 13:32:03;;;;;;;1.10;0.97;;;;;;;;;;4816112;29;20259;-81
2021/03/15 13:34:31;;;;;;;1.10;1.00;;;;;;;;;;4815614;29;20746;-80
2021/03/15 13:37:01;;;;;;;1.33;1.10;;;;;;;;;;4817153;29;20231;-80
2021/03/15 13:39:47;;;;;;;1.03;0.93;;;;;;;;;;4817427;29;20235;-79
2021/03/15 13:42:17;;;;;;;1.30;1.00;;;;;;;;;;4816007;29;20237;-79
2021/03/15 13:45:08;;;;;;;0.90;0.90;;;;;;;;;;4818102;29;20236;-79
2021/03/15 13:47:37;;;;;;;1.03;1.00;;;;;;;;;;4786035;29;20228;-80
2021/03/15 13:50:08;;;;;;;1.50;1.27;;;;;;;;;;4806504;29;20232;-79
2021/03/15 13:52:36;;;;;;;1.10;1.00;;;;;;;;;;4820081;29;20242;-79
2021/03/15 13:55:06;;;;;;;1.00;0.90;;;;;;;;;;4815944;29;20244;-80
2021/03/15 13:57:36;;;;;;;1.20;1.10;;;;;;;;;;4816701;29;20233;-80
2021/03/15 14:00:22;;;;;;;1.20;1.10;;;;;;;;;;4802959;29;20608;-79
2021/03/15 14:03:27;;;;;;;3.10;1.67;;;;;;;;;;4783355;29;20233;-80
2021/03/15 14:05:59;;;;;;;2.53;1.70;;;;;;;;;;4794828;29;20233;-80
2021/03/15 14:08:28;;;;;;;1.60;1.50;;;;;;;;;;4785762;29;20224;-80
2021/03/15 14:10:56;;;;;;;1.60;1.50;;;;;;;;;;4800524;29;20250;-81
2021/03/15 14:13:29;;;;;;;1.47;1.30;;;;;;;;;;4799908;29;20240;-80
2021/03/15 14:15:57;;;;;;;1.60;1.50;;;;;;;;;;4814850;29;20247;-80
2021/03/15 14:18:31;;;;;;;2.30;1.70;;;;;;;;;;4796389;29;20243;-80
2021/03/15 14:21:14;;;;;;;1.57;1.43;;;;;;;;;;4798149;29;20241;-79
2021/03/15 14:23:45;;;;;;;1.30;1.20;;;;;;;;;;4801089;29;20228;-79
2021/03/15 14:26:16;;;;;;;1.27;1.13;;;;;;;;;;4784200;29;21172;-79
2021/03/15 14:32:16;;;;;;;1.23;1.13;;;;;;;;;;4792200;29;20257;-80
2021/03/15 14:35:04;;;;;;;2.03;1.30;;;;;;;;;;4791748;29;20240;-79
2021/03/15 14:37:56;;;;;;;1.87;1.00;;;;;;;;;;4762816;29;20239;-79
2021/03/15 14:40:26;;;;;;;1.17;0.90;;;;;;;;;;4804983;29;20239;-79
2021/03/15 14:42:57;;;;;;;1.83;0.90;;;;;;;;;;4817044;29;20234;-79
2021/03/15 14:46:01;;;;;;;1.40;1.07;;;;;;;;;;4791116;29;20237;-79
2021/03/15 14:48:47;;;;;;;0.83;0.80;;;;;;;;;;4795920;29;20231;-79
2021/03/15 14:51:59;;;;;;;0.90;0.90;;;;;;;;;;4812867;29;20247;-79
2021/03/15 14:54:43;;;;;;;0.80;0.80;;;;;;;;;;4832457;29;20232;-80
2021/03/15 14:57:18;;;;;;;0.80;0.80;;;;;;;;;;4821039;29;20241;-83
2021/03/15 14:59:48;;;;;;;0.83;0.83;;;;;;;;;;4828847;29;20241;-80
2021/03/15 15:02:20;;;;;;;0.97;0.90;;;;;;;;;;4801622;29;20235;-80
2021/03/15 15:05:13;;;;;;;0.77;0.77;;;;;;;;;;4818166;29;20249;-80
2021/03/15 15:07:45;;;;;;;1.07;0.80;;;;;;;;;;4813183;29;20230;-80
2021/03/15 15:10:37;;;;;;;2.50;0.90;;;;;;;;;;4833430;29;20236;-81
2021/03/15 15:13:11;;;;;;;0.97;0.80;;;;;;;;;;4800258;29;20246;-80
2021/03/15 15:15:50;;;;;;;1.23;0.80;;;;;;;;;;4809702;29;20715;-83
2021/03/15 15:18:21;;;;;;;0.97;0.80;;;;;;;;;;4825686;29;20244;-79
2021/03/15 15:20:50;;;;;;;1.80;1.00;;;;;;;;;;4814654;29;20239;-82
2021/03/15 15:23:20;;;;;;;1.27;1.10;;;;;;;;;;4835476;29;20238;-79
2021/03/15 15:25:48;;;;;;;1.00;0.90;;;;;;;;;;4831986;29;20235;-80
2021/03/15 15:28:16;;;;;;;0.97;0.83;;;;;;;;;;4809469;29;20255;-79
2021/03/15 15:30:44;;;;;;;1.33;1.07;;;;;;;;;;4824482;29;20628;-80
2021/03/15 15:33:12;;;;;;;1.30;1.13;;;;;;;;;;4822079;29;20389;-79
2021/03/15 15:35:41;;;;;;;0.90;0.90;;;;;;;;;;4811681;29;20246;-79
2021/03/15 15:38:09;;;;;;;0.90;0.90;;;;;;;;;;4815771;29;20238;-79
2021/03/15 15:40:37;;;;;;;0.83;0.83;;;;;;;;;;4819373;29;20386;-79
2021/03/15 15:43:04;;;;;;;1.13;0.90;;;;;;;;;;4841315;29;20241;-81
2021/03/15 15:45:34;;;;;;;3.03;1.33;;;;;;;;;;4824317;29;20270;-80
2021/03/15 15:48:01;;;;;;;1.30;1.20;;;;;;;;;;4853340;29;20233;-83
2021/03/15 15:50:33;;;;;;;1.00;0.80;;;;;;;;;;4858106;29;20224;-80
2021/03/15 15:53:00;;;;;;;0.60;0.60;;;;;;;;;;4819476;29;20717;-80
2021/03/15 15:55:42;;;;;;;0.70;0.70;;;;;;;;;;4817299;29;20282;-79
2021/03/15 15:58:09;;;;;;;1.00;1.00;;;;;;;;;;4817556;29;20618;-80
2021/03/15 16:00:38;;;;;;;0.93;0.83;;;;;;;;;;4834201;29;20234;-80
2021/03/15 16:03:07;;;;;;;1.00;0.83;;;;;;;;;;4821044;29;20235;-79
2021/03/15 16:05:37;;;;;;;1.50;1.20;;;;;;;;;;4830556;29;20744;-80
2021/03/15 16:08:05;;;;;;;2.97;1.30;;;;;;;;;;4816200;29;20235;-79
2021/03/15 16:10:37;;;;;;;0.70;0.70;;;;;;;;;;4807859;29;20604;-79
2021/03/15 16:13:05;;;;;;;1.03;0.80;;;;;;;;;;4819664;29;20256;-80
2021/03/15 16:15:33;;;;;;;0.67;0.67;;;;;;;;;;4837550;29;20247;-79
2021/03/15 16:18:06;;;;;;;0.90;0.73;;;;;;;;;;4806143;29;20235;-79
2021/03/15 16:20:37;;;;;;;1.27;1.03;;;;;;;;;;4836500;29;20246;-78
2021/03/15 16:23:06;;;;;;;1.20;0.90;;;;;;;;;;4834739;29;20239;-80
2021/03/15 16:25:34;;;;;;;0.80;0.80;;;;;;;;;;4840940;29;20238;-79
2021/03/15 16:28:02;;;;;;;2.17;1.10;;;;;;;;;;4832234;29;20231;-80
2021/03/15 16:30:32;;;;;;;1.10;1.00;;;;;;;;;;4833086;29;20243;-79
2021/03/15 16:33:01;;;;;;;1.33;1.10;;;;;;;;;;4823947;29;20235;-79
2021/03/15 16:35:30;;;;;;;2.07;1.00;;;;;;;;;;4825114;29;20234;-80
2021/03/15 16:37:59;;;;;;;2.60;1.10;;;;;;;;;;4821649;29;20235;-80
2021/03/15 16:40:28;;;;;;;0.83;0.83;;;;;;;;;;4809373;29;20742;-80
2021/03/15 16:42:56;;;;;;;0.70;0.70;;;;;;;;;;4801706;29;20239;-80
2021/03/15 16:45:24;;;;;;;0.90;0.80;;;;;;;;;;4812195;29;20259;-81
2021/03/15 16:47:52;;;;;;;1.90;1.00;;;;;;;;;;4836973;29;20250;-80
2021/03/15 16:50:21;;;;;;;1.33;1.23;;;;;;;;;;4802255;29;20239;-80
2021/03/15 16:52:51;;;;;;;1.13;1.03;;;;;;;;;;4821212;29;20726;-80
2021/03/15 16:55:19;;;;;;;1.77;1.30;;;;;;;;;;4807545;29;20733;-81
2021/03/15 16:57:47;;;;;;;2.10;1.57;;;;;;;;;;4831618;29;20226;-80
2021/03/15 17:00:15;;;;;;;2.67;1.60;;;;;;;;;;4807398;29;20241;-81
2021/03/15 17:02:43;;;;;;;1.87;1.30;;;;;;;;;;4804115;29;20239;-81
2021/03/15 17:05:12;;;;;;;2.50;1.73;;;;;;;;;;4815370;29;20235;-81
2021/03/15 17:07:40;;;;;;;2.90;1.60;;;;;;;;;;4817940;29;20236;-80
2021/03/15 17:10:10;;;;;;;2.17;1.80;;;;;;;;;;4805618;29;20239;-81
2021/03/15 17:12:38;;;;;;;2.37;2.00;;;;;;;;;;4808177;29;20242;-81
2021/03/15 17:15:08;;;;;;;3.10;2.03;;;;;;;;;;4812434;29;20231;-81
2021/03/15 17:17:36;;;;;;;3.00;2.00;;;;;;;;;;4821779;29;20227;-80
2021/03/15 17:20:11;;;;;;;3.80;2.53;;;;;;;;;;4825337;29;20231;-80
2021/03/15 17:22:39;;;;;;;3.80;2.50;;;;;;;;;;4829101;29;20243;-80
2021/03/15 17:25:09;;;;;;;6.20;2.67;;;;;;;;;;4824415;29;20236;-80
2021/03/15 17:27:37;;;;;;;4.03;2.60;;;;;;;;;;4782591;29;20744;-81
2021/03/15 17:30:06;;;;;;;4.33;2.70;;;;;;;;;;4815262;29;20283;-80
2021/03/15 17:32:34;;;;;;;4.00;2.93;;;;;;;;;;4833274;29;20231;-81
2021/03/15 17:35:02;;;;;;;2.90;2.30;;;;;;;;;;4831685;29;20239;-80
2021/03/15 17:37:29;;;;;;;2.90;2.43;;;;;;;;;;4804045;29;20231;-80
2021/03/15 17:39:57;;;;;;;4.20;2.77;;;;;;;;;;4788848;29;20239;-80
2021/03/15 17:42:26;;;;;;;3.80;2.53;;;;;;;;;;4789790;29;20227;-81
2021/03/15 17:44:55;;;;;;;3.63;2.70;;;;;;;;;;4815913;29;20679;-80
2021/03/15 17:47:23;;;;;;;5.70;3.03;;;;;;;;;;4822274;29;20609;-81
2021/03/15 17:49:51;;;;;;;3.37;3.07;;;;;;;;;;4800223;29;20231;-80
2021/03/15 17:52:19;;;;;;;3.80;2.87;;;;;;;;;;4833475;29;20250;-81